createdAt,value
2022-08-08T00:00:56.315Z,19.60
2022-08-08T00:05:43.341Z,19.50
2022-08-08T00:11:12.852Z,19.40
2022-08-08T00:16:20.602Z,19.40
2022-08-08T00:21:27.616Z,19.30
2022-08-08T00:26:44.173Z,19.20
2022-08-08T00:32:29.172Z,19.10
2022-08-08T00:37:16.516Z,19.10
2022-08-08T00:42:52.346Z,19.10
2022-08-08T00:48:33.907Z,19.10
2022-08-08T00:54:15.757Z,19.10
2022-08-08T00:59:49.352Z,19.00
2022-08-08T01:05:42.507Z,19.00
2022-08-08T01:11:17.642Z,18.90
2022-08-08T01:16:52.788Z,18.90
2022-08-08T01:22:35.308Z,18.80
2022-08-08T01:28:07.741Z,18.70
2022-08-08T01:33:54.321Z,18.70
2022-08-08T01:39:18.453Z,18.60
2022-08-08T01:44:39.328Z,18.60
2022-08-08T01:49:53.607Z,18.50
2022-08-08T01:55:26.698Z,18.40
2022-08-08T02:00:42.663Z,18.50
2022-08-08T02:05:56.288Z,18.40
2022-08-08T02:11:23.632Z,18.40
2022-08-08T02:16:42.808Z,18.40
2022-08-08T02:22:13.217Z,18.30
2022-08-08T02:27:18.426Z,18.30
2022-08-08T02:32:32.742Z,18.20
2022-08-08T02:37:58.540Z,18.20
2022-08-08T02:44:35.273Z,18.20
2022-08-08T02:49:50.812Z,18.10
2022-08-08T02:55:59.959Z,18.10
2022-08-08T03:01:47.392Z,18.10
2022-08-08T03:07:41.464Z,18.00
2022-08-08T03:13:34.210Z,18.00
2022-08-08T03:19:02.386Z,17.90
2022-08-08T03:24:03.663Z,17.80
2022-08-08T03:29:16.996Z,17.80
2022-08-08T03:34:21.140Z,17.80
2022-08-08T03:39:22.011Z,17.70
2022-08-08T03:44:25.392Z,17.70
2022-08-08T03:49:56.731Z,17.60
2022-08-08T03:55:02.356Z,17.60
2022-08-08T04:00:11.605Z,17.50
2022-08-08T04:05:28.014Z,17.50
2022-08-08T04:10:32.559Z,17.50
2022-08-08T04:15:38.741Z,17.40
2022-08-08T04:20:39.083Z,17.40
2022-08-08T04:25:41.884Z,17.40
2022-08-08T04:30:44.768Z,17.30
2022-08-08T04:35:51.476Z,17.30
2022-08-08T04:40:54.683Z,17.30
2022-08-08T04:45:54.763Z,17.30
2022-08-08T04:50:54.858Z,17.30
2022-08-08T04:56:00.209Z,17.40
2022-08-08T05:01:08.779Z,17.40
2022-08-08T05:06:13.283Z,17.50
2022-08-08T05:11:22.732Z,17.60
2022-08-08T05:16:51.257Z,17.70
2022-08-08T05:21:59.506Z,17.70
2022-08-08T05:27:00.345Z,17.80
2022-08-08T05:32:03.924Z,17.90
2022-08-08T05:37:15.755Z,18.00
2022-08-08T05:42:19.175Z,18.00
2022-08-08T05:47:20.929Z,18.10
2022-08-08T05:52:31.730Z,18.20
2022-08-08T05:58:03.988Z,18.20
2022-08-08T06:03:55.546Z,18.30
2022-08-08T06:09:00.527Z,18.60
2022-08-08T06:14:17.716Z,18.80
2022-08-08T06:19:18.010Z,18.80
2022-08-08T06:24:22.964Z,18.90
2022-08-08T06:29:59.615Z,19.10
2022-08-08T06:36:04.474Z,19.30
2022-08-08T06:40:26.615Z,19.50
2022-08-08T06:45:29.293Z,19.50
2022-08-08T06:50:31.979Z,19.60
2022-08-08T06:55:37.689Z,19.80
2022-08-08T07:00:45.286Z,20.00
2022-08-08T07:06:02.116Z,20.20
2022-08-08T07:11:05.541Z,20.50
2022-08-08T07:16:19.242Z,20.70
2022-08-08T07:21:31.124Z,20.90
2022-08-08T07:26:35.996Z,21.30
2022-08-08T07:31:38.747Z,21.40
2022-08-08T07:36:48.307Z,21.80
2022-08-08T07:42:04.454Z,22.10
2022-08-08T07:47:06.070Z,22.40
2022-08-08T07:52:05.618Z,22.50
2022-08-08T07:57:11.581Z,22.90
2022-08-08T08:02:35.199Z,23.20
2022-08-08T08:07:40.310Z,23.60
2022-08-08T08:12:54.304Z,23.70
2022-08-08T08:17:59.393Z,23.60
2022-08-08T08:22:59.645Z,23.80
2022-08-08T08:27:58.405Z,23.60
2022-08-08T08:32:59.159Z,23.50
2022-08-08T08:38:17.305Z,23.70
2022-08-08T08:43:26.637Z,23.90
2022-08-08T08:48:31.232Z,24.00
2022-08-08T08:53:56.602Z,24.20
2022-08-08T09:05:54.396Z,24.20
2022-08-08T09:10:56.534Z,24.30
2022-08-08T09:16:02.835Z,24.40
2022-08-08T09:21:59.989Z,24.70
2022-08-08T09:27:55.701Z,25.10
2022-08-08T09:33:12.592Z,25.70
2022-08-08T09:38:17.556Z,26.20
2022-08-08T09:43:40.439Z,26.50
2022-08-08T09:48:42.949Z,26.50
2022-08-08T09:54:01.270Z,26.40
2022-08-08T09:59:40.270Z,26.40
2022-08-08T10:04:42.456Z,26.90
2022-08-08T10:10:00.222Z,26.90
2022-08-08T10:15:02.470Z,26.80
2022-08-08T10:20:16.985Z,26.80
2022-08-08T10:25:22.548Z,26.80
2022-08-08T10:30:57.464Z,26.80
2022-08-08T10:36:08.977Z,26.90
2022-08-08T10:41:05.009Z,27.00
2022-08-08T10:46:03.735Z,27.10
2022-08-08T10:51:15.113Z,27.20
2022-08-08T10:56:26.877Z,27.30
2022-08-08T11:01:30.160Z,27.60
2022-08-08T11:06:35.171Z,27.80
2022-08-08T11:12:05.161Z,27.90
2022-08-08T11:16:58.758Z,28.00
2022-08-08T11:21:58.851Z,28.20
2022-08-08T11:27:10.797Z,28.40
2022-08-08T11:32:22.174Z,28.80
2022-08-08T11:38:35.978Z,29.30
2022-08-08T11:42:48.101Z,29.50
2022-08-08T11:48:02.612Z,29.30
2022-08-08T11:53:05.747Z,29.40
2022-08-08T11:58:14.854Z,29.40
2022-08-08T12:03:21.037Z,29.40
2022-08-08T12:08:34.973Z,29.30
2022-08-08T12:13:38.287Z,29.10
2022-08-08T12:18:54.351Z,29.10
2022-08-08T12:24:04.073Z,29.00
2022-08-08T12:29:02.661Z,29.00
2022-08-08T12:34:02.319Z,28.90
2022-08-08T12:39:06.702Z,28.90
2022-08-08T12:44:10.099Z,28.90
2022-08-08T12:49:29.608Z,28.80
2022-08-08T12:54:29.657Z,28.80
2022-08-08T12:59:36.811Z,28.80
2022-08-08T13:04:51.645Z,28.70
2022-08-08T13:10:05.117Z,28.60
2022-08-08T13:15:06.166Z,28.60
2022-08-08T13:20:08.670Z,28.60
2022-08-08T13:25:15.005Z,28.80
2022-08-08T13:30:18.693Z,29.10
2022-08-08T13:35:25.164Z,29.30
2022-08-08T13:40:41.383Z,29.50
2022-08-08T13:45:40.918Z,29.70
2022-08-08T13:50:50.897Z,29.70
2022-08-08T13:56:01.138Z,29.80
2022-08-08T14:00:59.733Z,29.80
2022-08-08T14:06:32.047Z,29.80
2022-08-08T14:11:29.443Z,29.80
2022-08-08T14:16:27.806Z,29.80
2022-08-08T14:21:51.941Z,29.80
2022-08-08T14:26:56.270Z,29.80
2022-08-08T14:32:10.529Z,29.80
2022-08-08T14:37:17.966Z,29.80
2022-08-08T14:42:17.767Z,29.70
2022-08-08T14:47:22.065Z,29.60
2022-08-08T14:52:21.299Z,29.50
2022-08-08T14:58:02.597Z,29.40
2022-08-08T15:02:58.634Z,29.40
2022-08-08T15:07:59.878Z,29.20
2022-08-08T15:13:00.529Z,29.20
2022-08-08T15:17:58.812Z,29.20
2022-08-08T15:22:57.063Z,29.20
2022-08-08T15:28:05.117Z,29.20
2022-08-08T15:33:20.795Z,29.10
2022-08-08T15:38:20.377Z,29.00
2022-08-08T15:43:36.038Z,29.00
2022-08-08T15:48:37.609Z,28.90
2022-08-08T15:53:40.534Z,28.80
2022-08-08T15:58:49.348Z,28.70
2022-08-08T16:03:51.845Z,28.70
2022-08-08T16:13:00.319Z,28.60
2022-08-08T16:14:15.734Z,28.50
2022-08-08T16:19:23.387Z,28.40
2022-08-08T16:24:22.965Z,28.30
2022-08-08T16:29:23.845Z,28.20
2022-08-08T16:34:37.407Z,28.20
2022-08-08T16:40:03.034Z,28.20
2022-08-08T16:44:58.922Z,28.00
2022-08-08T16:50:01.233Z,28.00
2022-08-08T16:55:34.223Z,27.90
2022-08-08T17:00:26.967Z,27.80
2022-08-08T17:05:42.262Z,27.60
2022-08-08T17:10:58.245Z,27.50
2022-08-08T17:16:02.057Z,27.30
2022-08-08T17:21:02.180Z,27.10
2022-08-08T17:26:05.155Z,26.80
2022-08-08T17:31:39.300Z,26.70
2022-08-08T17:36:31.370Z,26.50
2022-08-08T17:41:38.539Z,26.40
2022-08-08T17:46:41.349Z,26.30
2022-08-08T17:51:43.708Z,26.20
2022-08-08T17:56:50.365Z,26.00
2022-08-08T18:01:54.400Z,25.90
2022-08-08T18:06:55.790Z,25.80
2022-08-08T18:11:56.218Z,25.70
2022-08-08T18:16:55.886Z,25.60
2022-08-08T18:22:00.953Z,25.50
2022-08-08T18:27:06.236Z,25.20
2022-08-08T18:32:16.037Z,25.10
2022-08-08T18:37:33.798Z,25.00
2022-08-08T18:42:33.199Z,25.00
2022-08-08T18:47:33.735Z,24.90
2022-08-08T18:52:34.764Z,24.80
2022-08-08T18:57:36.984Z,24.80
2022-08-08T19:02:48.593Z,24.70
2022-08-08T19:07:54.717Z,24.70
2022-08-08T19:12:53.500Z,24.60
2022-08-08T19:18:32.183Z,24.60
2022-08-08T19:23:11.884Z,24.50
2022-08-08T19:28:18.086Z,24.50
2022-08-08T19:33:18.522Z,24.30
2022-08-08T19:38:24.000Z,24.20
2022-08-08T19:43:22.215Z,24.10
2022-08-08T19:48:28.204Z,24.10
2022-08-08T19:53:51.421Z,24.00
2022-08-08T19:58:51.769Z,23.90
2022-08-08T20:04:01.337Z,23.90
2022-08-08T20:09:04.413Z,23.80
2022-08-08T20:14:33.085Z,23.70
2022-08-08T20:19:25.076Z,23.60
2022-08-08T20:24:24.670Z,23.50
2022-08-08T20:29:45.737Z,23.50
2022-08-08T20:34:47.874Z,23.40
2022-08-08T20:39:51.741Z,23.30
2022-08-08T20:44:50.568Z,23.20
2022-08-08T20:49:49.116Z,23.10
2022-08-08T20:54:50.488Z,23.00
2022-08-08T20:59:48.850Z,22.90
2022-08-08T21:04:50.028Z,22.80
2022-08-08T21:10:08.093Z,22.80
2022-08-08T21:15:09.841Z,22.70
2022-08-08T21:20:09.016Z,22.60
2022-08-08T21:25:10.782Z,22.50
2022-08-08T21:30:18.641Z,22.40
2022-08-08T21:36:14.974Z,22.40
2022-08-08T21:40:37.935Z,22.30
2022-08-08T21:48:00.625Z,22.30
2022-08-08T21:50:54.304Z,22.20
2022-08-08T21:56:19.749Z,22.00
2022-08-08T22:01:27.786Z,22.00
2022-08-08T22:06:30.973Z,21.80
2022-08-08T22:12:02.492Z,21.80
2022-08-08T22:16:53.382Z,21.80
2022-08-08T22:21:51.869Z,21.80
2022-08-08T22:27:01.631Z,21.60
2022-08-08T22:32:02.048Z,21.50
2022-08-08T22:37:01.117Z,21.40
2022-08-08T22:42:00.761Z,21.30
2022-08-08T22:47:01.215Z,21.20
2022-08-08T22:59:12.961Z,21.00
2022-08-08T23:04:17.367Z,20.90
2022-08-08T23:09:31.074Z,20.90
2022-08-08T23:14:38.784Z,20.80
2022-08-08T23:19:54.589Z,20.70
2022-08-08T23:24:52.880Z,20.70
2022-08-08T23:29:55.126Z,20.60
2022-08-08T23:34:58.710Z,20.50
2022-08-08T23:39:57.989Z,20.50
2022-08-08T23:44:57.750Z,20.50
2022-08-08T23:50:02.937Z,20.40
2022-08-08T23:55:22.898Z,20.30
